sensor_id;sensor_type;location;lat;lon;timestamp;pressure;altitude;pressure_sealevel;temperature;humidity
80568;BME280;69922;45.656;25.586;2023-07-08T00:00:33;95359.48;;;16.96;80.35
80568;BME280;69922;45.656;25.586;2023-07-08T00:02:00;95363.63;;;16.94;80.02
80568;BME280;69922;45.656;25.586;2023-07-08T00:03:09;95359.45;;;16.94;80.27
80568;BME280;69922;45.656;25.586;2023-07-08T00:04:17;95362.75;;;16.94;80.30
80568;BME280;69922;45.656;25.586;2023-07-08T00:05:24;95361.19;;;16.95;80.51
80568;BME280;69922;45.656;25.586;2023-07-08T00:06:32;95362.26;;;16.96;80.12
80568;BME280;69922;45.656;25.586;2023-07-08T00:07:39;95359.42;;;16.97;79.93
80568;BME280;69922;45.656;25.586;2023-07-08T00:08:48;95360.84;;;16.97;79.76
80568;BME280;69922;45.656;25.586;2023-07-08T00:09:54;95357.60;;;16.97;79.72
80568;BME280;69922;45.656;25.586;2023-07-08T00:11:01;95362.58;;;16.96;79.71
80568;BME280;69922;45.656;25.586;2023-07-08T00:12:13;95363.13;;;16.97;79.76
80568;BME280;69922;45.656;25.586;2023-07-08T00:13:19;95359.58;;;16.97;79.82
80568;BME280;69922;45.656;25.586;2023-07-08T00:14:25;95357.92;;;16.97;80.21
80568;BME280;69922;45.656;25.586;2023-07-08T00:15:33;95360.84;;;16.97;79.64
80568;BME280;69922;45.656;25.586;2023-07-08T00:16:40;95355.93;;;16.96;79.83
80568;BME280;69922;45.656;25.586;2023-07-08T00:17:48;95357.08;;;16.97;79.54
80568;BME280;69922;45.656;25.586;2023-07-08T00:18:55;95360.80;;;16.99;79.57
80568;BME280;69922;45.656;25.586;2023-07-08T00:20:01;95360.33;;;16.98;79.57
80568;BME280;69922;45.656;25.586;2023-07-08T00:21:13;95364.89;;;16.98;79.44
80568;BME280;69922;45.656;25.586;2023-07-08T00:22:23;95361.63;;;16.97;79.35
80568;BME280;69922;45.656;25.586;2023-07-08T00:23:30;95360.23;;;16.98;79.86
80568;BME280;69922;45.656;25.586;2023-07-08T00:24:39;95357.36;;;16.99;80.20
80568;BME280;69922;45.656;25.586;2023-07-08T00:25:45;95359.26;;;17.00;80.23
80568;BME280;69922;45.656;25.586;2023-07-08T00:26:51;95359.98;;;17.00;80.33
80568;BME280;69922;45.656;25.586;2023-07-08T00:27:58;95360.64;;;17.02;80.03
80568;BME280;69922;45.656;25.586;2023-07-08T00:29:10;95364.41;;;17.04;79.98
80568;BME280;69922;45.656;25.586;2023-07-08T00:30:22;95362.79;;;17.06;79.45
80568;BME280;69922;45.656;25.586;2023-07-08T00:31:28;95365.02;;;17.07;79.13
80568;BME280;69922;45.656;25.586;2023-07-08T00:32:38;95368.99;;;17.08;79.14
80568;BME280;69922;45.656;25.586;2023-07-08T00:33:48;95362.77;;;17.08;79.44
80568;BME280;69922;45.656;25.586;2023-07-08T00:34:54;95363.08;;;17.08;79.68
80568;BME280;69922;45.656;25.586;2023-07-08T00:36:01;95358.10;;;17.08;79.44
80568;BME280;69922;45.656;25.586;2023-07-08T00:37:10;95358.63;;;17.07;79.69
80568;BME280;69922;45.656;25.586;2023-07-08T00:38:20;95355.44;;;17.05;79.60
80568;BME280;69922;45.656;25.586;2023-07-08T00:39:35;95356.36;;;17.04;79.76
80568;BME280;69922;45.656;25.586;2023-07-08T00:40:51;95351.02;;;17.01;79.67
80568;BME280;69922;45.656;25.586;2023-07-08T00:42:02;95357.59;;;17.03;79.93
80568;BME280;69922;45.656;25.586;2023-07-08T00:43:16;95361.70;;;17.03;79.93
80568;BME280;69922;45.656;25.586;2023-07-08T00:44:22;95358.42;;;17.01;79.90
80568;BME280;69922;45.656;25.586;2023-07-08T00:45:38;95360.54;;;17.01;79.86
80568;BME280;69922;45.656;25.586;2023-07-08T00:47:10;95363.63;;;16.98;79.79
80568;BME280;69922;45.656;25.586;2023-07-08T00:48:22;95362.77;;;16.98;80.09
80568;BME280;69922;45.656;25.586;2023-07-08T00:49:36;95363.81;;;16.99;79.91
80568;BME280;69922;45.656;25.586;2023-07-08T00:50:45;95361.20;;;16.99;79.84
80568;BME280;69922;45.656;25.586;2023-07-08T00:51:52;95364.17;;;16.98;79.79
80568;BME280;69922;45.656;25.586;2023-07-08T00:53:23;95364.28;;;16.99;80.06
80568;BME280;69922;45.656;25.586;2023-07-08T00:54:30;95364.08;;;17.00;80.28
80568;BME280;69922;45.656;25.586;2023-07-08T00:55:37;95366.13;;;17.03;80.17
80568;BME280;69922;45.656;25.586;2023-07-08T00:56:47;95365.63;;;17.06;79.70
80568;BME280;69922;45.656;25.586;2023-07-08T00:57:55;95368.09;;;17.06;79.46
80568;BME280;69922;45.656;25.586;2023-07-08T00:59:07;95370.94;;;17.08;79.60
80568;BME280;69922;45.656;25.586;2023-07-08T01:00:18;95371.15;;;17.09;79.36
80568;BME280;69922;45.656;25.586;2023-07-08T01:01:25;95369.11;;;17.10;79.51
80568;BME280;69922;45.656;25.586;2023-07-08T01:02:48;95369.79;;;17.12;79.55
80568;BME280;69922;45.656;25.586;2023-07-08T01:04:00;95370.03;;;17.12;79.68
80568;BME280;69922;45.656;25.586;2023-07-08T01:05:12;95371.48;;;17.13;79.70
80568;BME280;69922;45.656;25.586;2023-07-08T01:06:21;95368.21;;;17.12;79.82
80568;BME280;69922;45.656;25.586;2023-07-08T01:07:37;95370.86;;;17.10;79.87
80568;BME280;69922;45.656;25.586;2023-07-08T01:08:48;95375.27;;;17.10;80.01
80568;BME280;69922;45.656;25.586;2023-07-08T01:10:07;95373.29;;;17.10;79.91
80568;BME280;69922;45.656;25.586;2023-07-08T01:11:20;95374.01;;;17.10;79.53
80568;BME280;69922;45.656;25.586;2023-07-08T01:12:29;95374.31;;;17.10;79.58
80568;BME280;69922;45.656;25.586;2023-07-08T01:13:42;95376.02;;;17.09;79.82
80568;BME280;69922;45.656;25.586;2023-07-08T01:14:52;95374.83;;;17.08;79.87
80568;BME280;69922;45.656;25.586;2023-07-08T01:15:59;95377.70;;;17.06;80.05
80568;BME280;69922;45.656;25.586;2023-07-08T01:17:06;95377.92;;;17.06;80.18
80568;BME280;69922;45.656;25.586;2023-07-08T01:18:21;95378.91;;;17.04;80.27
80568;BME280;69922;45.656;25.586;2023-07-08T01:19:31;95379.17;;;17.02;80.38
80568;BME280;69922;45.656;25.586;2023-07-08T01:20:38;95381.48;;;17.00;80.41
80568;BME280;69922;45.656;25.586;2023-07-08T01:21:48;95377.81;;;16.98;80.38
80568;BME280;69922;45.656;25.586;2023-07-08T01:23:06;95376.17;;;16.95;80.51
80568;BME280;69922;45.656;25.586;2023-07-08T01:24:12;95378.13;;;16.95;80.66
80568;BME280;69922;45.656;25.586;2023-07-08T01:25:18;95376.45;;;16.93;80.68
80568;BME280;69922;45.656;25.586;2023-07-08T01:26:26;95374.59;;;16.92;80.95
80568;BME280;69922;45.656;25.586;2023-07-08T01:27:35;95379.55;;;16.91;80.77
80568;BME280;69922;45.656;25.586;2023-07-08T01:28:42;95377.16;;;16.90;80.91
80568;BME280;69922;45.656;25.586;2023-07-08T01:29:49;95383.46;;;16.90;80.91
80568;BME280;69922;45.656;25.586;2023-07-08T01:30:55;95380.23;;;16.90;80.60
80568;BME280;69922;45.656;25.586;2023-07-08T01:32:12;95381.38;;;16.92;80.79
80568;BME280;69922;45.656;25.586;2023-07-08T01:33:26;95380.36;;;16.92;80.87
80568;BME280;69922;45.656;25.586;2023-07-08T01:34:33;95377.39;;;16.94;80.89
80568;BME280;69922;45.656;25.586;2023-07-08T01:35:39;95381.91;;;16.94;81.07
80568;BME280;69922;45.656;25.586;2023-07-08T01:36:50;95381.03;;;16.94;81.06
80568;BME280;69922;45.656;25.586;2023-07-08T01:38:01;95380.09;;;16.94;81.01
80568;BME280;69922;45.656;25.586;2023-07-08T01:39:13;95381.27;;;16.94;81.21
80568;BME280;69922;45.656;25.586;2023-07-08T01:40:30;95381.71;;;16.93;80.69
80568;BME280;69922;45.656;25.586;2023-07-08T01:41:37;95378.75;;;16.91;80.66
80568;BME280;69922;45.656;25.586;2023-07-08T01:42:44;95379.08;;;16.88;80.93
80568;BME280;69922;45.656;25.586;2023-07-08T01:43:50;95382.19;;;16.86;80.81
80568;BME280;69922;45.656;25.586;2023-07-08T01:44:56;95387.10;;;16.84;81.06
80568;BME280;69922;45.656;25.586;2023-07-08T01:46:03;95384.98;;;16.82;80.82
80568;BME280;69922;45.656;25.586;2023-07-08T01:47:13;95387.27;;;16.81;80.96
80568;BME280;69922;45.656;25.586;2023-07-08T01:48:23;95386.83;;;16.80;81.02
80568;BME280;69922;45.656;25.586;2023-07-08T01:49:31;95385.71;;;16.79;81.15
80568;BME280;69922;45.656;25.586;2023-07-08T01:50:42;95386.17;;;16.78;80.99
80568;BME280;69922;45.656;25.586;2023-07-08T01:51:49;95384.67;;;16.79;81.17
80568;BME280;69922;45.656;25.586;2023-07-08T01:52:59;95388.23;;;16.79;81.23
80568;BME280;69922;45.656;25.586;2023-07-08T01:54:06;95391.30;;;16.79;81.27
80568;BME280;69922;45.656;25.586;2023-07-08T01:55:12;95383.34;;;16.79;80.98
80568;BME280;69922;45.656;25.586;2023-07-08T01:56:18;95387.19;;;16.78;81.08
80568;BME280;69922;45.656;25.586;2023-07-08T01:57:25;95381.27;;;16.78;81.01
80568;BME280;69922;45.656;25.586;2023-07-08T01:58:31;95384.05;;;16.78;81.10
80568;BME280;69922;45.656;25.586;2023-07-08T01:59:37;95379.56;;;16.79;80.82
80568;BME280;69922;45.656;25.586;2023-07-08T02:00:43;95382.98;;;16.80;80.94
80568;BME280;69922;45.656;25.586;2023-07-08T02:01:50;95377.61;;;16.80;80.96
80568;BME280;69922;45.656;25.586;2023-07-08T02:03:02;95375.32;;;16.79;80.87
80568;BME280;69922;45.656;25.586;2023-07-08T02:04:08;95372.27;;;16.80;81.15
80568;BME280;69922;45.656;25.586;2023-07-08T02:05:15;95374.34;;;16.81;81.02
80568;BME280;69922;45.656;25.586;2023-07-08T02:06:21;95371.34;;;16.81;81.08
80568;BME280;69922;45.656;25.586;2023-07-08T02:07:29;95372.01;;;16.79;81.07
80568;BME280;69922;45.656;25.586;2023-07-08T02:08:35;95373.32;;;16.78;81.07
80568;BME280;69922;45.656;25.586;2023-07-08T02:09:41;95367.15;;;16.78;81.55
80568;BME280;69922;45.656;25.586;2023-07-08T02:10:51;95366.24;;;16.79;81.29
80568;BME280;69922;45.656;25.586;2023-07-08T02:11:57;95365.41;;;16.83;81.24
80568;BME280;69922;45.656;25.586;2023-07-08T02:13:03;95369.08;;;16.86;81.05
80568;BME280;69922;45.656;25.586;2023-07-08T02:14:11;95368.49;;;16.87;81.21
80568;BME280;69922;45.656;25.586;2023-07-08T02:15:18;95366.19;;;16.89;81.33
80568;BME280;69922;45.656;25.586;2023-07-08T02:16:24;95368.14;;;16.92;81.08
80568;BME280;69922;45.656;25.586;2023-07-08T02:17:30;95366.78;;;16.94;80.73
80568;BME280;69922;45.656;25.586;2023-07-08T02:18:39;95364.85;;;16.96;80.69
80568;BME280;69922;45.656;25.586;2023-07-08T02:19:44;95366.16;;;16.98;80.42
80568;BME280;69922;45.656;25.586;2023-07-08T02:20:50;95363.46;;;16.98;80.43
80568;BME280;69922;45.656;25.586;2023-07-08T02:21:56;95363.89;;;16.99;80.71
80568;BME280;69922;45.656;25.586;2023-07-08T02:23:02;95365.20;;;17.04;80.63
80568;BME280;69922;45.656;25.586;2023-07-08T02:24:08;95364.52;;;17.06;80.30
80568;BME280;69922;45.656;25.586;2023-07-08T02:25:15;95368.08;;;17.07;80.06
80568;BME280;69922;45.656;25.586;2023-07-08T02:26:21;95369.79;;;17.05;80.14
80568;BME280;69922;45.656;25.586;2023-07-08T02:27:27;95368.58;;;17.04;80.25
80568;BME280;69922;45.656;25.586;2023-07-08T02:28:33;95372.44;;;17.04;80.03
80568;BME280;69922;45.656;25.586;2023-07-08T02:29:39;95372.91;;;17.03;79.99
80568;BME280;69922;45.656;25.586;2023-07-08T02:30:45;95370.69;;;17.03;79.92
80568;BME280;69922;45.656;25.586;2023-07-08T02:31:51;95375.38;;;17.05;80.03
80568;BME280;69922;45.656;25.586;2023-07-08T02:32:58;95372.57;;;17.06;80.05
80568;BME280;69922;45.656;25.586;2023-07-08T02:34:05;95373.64;;;17.08;80.07
80568;BME280;69922;45.656;25.586;2023-07-08T02:35:11;95375.05;;;17.11;80.31
80568;BME280;69922;45.656;25.586;2023-07-08T02:36:16;95376.88;;;17.15;80.39
80568;BME280;69922;45.656;25.586;2023-07-08T02:37:23;95380.09;;;17.18;79.82
80568;BME280;69922;45.656;25.586;2023-07-08T02:38:30;95380.66;;;17.19;79.56
80568;BME280;69922;45.656;25.586;2023-07-08T02:39:36;95381.21;;;17.19;79.44
80568;BME280;69922;45.656;25.586;2023-07-08T02:40:42;95384.58;;;17.18;79.41
80568;BME280;69922;45.656;25.586;2023-07-08T02:41:48;95387.02;;;17.17;79.60
80568;BME280;69922;45.656;25.586;2023-07-08T02:42:56;95387.25;;;17.17;79.46
80568;BME280;69922;45.656;25.586;2023-07-08T02:44:02;95385.57;;;17.16;79.44
80568;BME280;69922;45.656;25.586;2023-07-08T02:45:10;95389.81;;;17.15;79.52
80568;BME280;69922;45.656;25.586;2023-07-08T02:46:16;95390.05;;;17.12;79.54
80568;BME280;69922;45.656;25.586;2023-07-08T02:47:23;95392.33;;;17.12;79.61
80568;BME280;69922;45.656;25.586;2023-07-08T02:48:29;95395.31;;;17.11;79.63
80568;BME280;69922;45.656;25.586;2023-07-08T02:49:35;95392.56;;;17.11;79.72
80568;BME280;69922;45.656;25.586;2023-07-08T02:50:41;95396.51;;;17.12;79.87
80568;BME280;69922;45.656;25.586;2023-07-08T02:51:48;95396.38;;;17.13;79.92
80568;BME280;69922;45.656;25.586;2023-07-08T02:52:54;95399.10;;;17.15;80.03
80568;BME280;69922;45.656;25.586;2023-07-08T02:54:00;95404.48;;;17.15;79.77
80568;BME280;69922;45.656;25.586;2023-07-08T02:55:09;95399.35;;;17.12;79.73
80568;BME280;69922;45.656;25.586;2023-07-08T02:56:15;95399.25;;;17.11;79.71
80568;BME280;69922;45.656;25.586;2023-07-08T02:57:21;95402.71;;;17.10;79.96
80568;BME280;69922;45.656;25.586;2023-07-08T02:58:27;95408.61;;;17.10;80.15
80568;BME280;69922;45.656;25.586;2023-07-08T02:59:34;95402.91;;;17.09;79.95
80568;BME280;69922;45.656;25.586;2023-07-08T03:00:40;95404.25;;;17.06;79.70
80568;BME280;69922;45.656;25.586;2023-07-08T03:01:46;95403.44;;;17.05;79.92
80568;BME280;69922;45.656;25.586;2023-07-08T03:02:52;95402.54;;;17.03;79.65
80568;BME280;69922;45.656;25.586;2023-07-08T03:03:59;95403.88;;;17.03;79.88
80568;BME280;69922;45.656;25.586;2023-07-08T03:05:08;95408.48;;;17.02;79.95
80568;BME280;69922;45.656;25.586;2023-07-08T03:06:15;95408.22;;;17.00;80.04
80568;BME280;69922;45.656;25.586;2023-07-08T03:07:21;95410.02;;;16.97;79.86
80568;BME280;69922;45.656;25.586;2023-07-08T03:08:28;95410.21;;;16.95;79.88
80568;BME280;69922;45.656;25.586;2023-07-08T03:09:35;95412.78;;;16.93;79.92
80568;BME280;69922;45.656;25.586;2023-07-08T03:10:41;95411.34;;;16.93;80.11
80568;BME280;69922;45.656;25.586;2023-07-08T03:11:47;95412.41;;;16.91;80.42
80568;BME280;69922;45.656;25.586;2023-07-08T03:12:53;95414.39;;;16.88;80.47
80568;BME280;69922;45.656;25.586;2023-07-08T03:13:59;95419.63;;;16.87;80.20
80568;BME280;69922;45.656;25.586;2023-07-08T03:15:07;95417.40;;;16.86;80.11
80568;BME280;69922;45.656;25.586;2023-07-08T03:16:13;95420.20;;;16.84;80.33
80568;BME280;69922;45.656;25.586;2023-07-08T03:17:19;95420.77;;;16.82;80.16
80568;BME280;69922;45.656;25.586;2023-07-08T03:18:26;95420.85;;;16.82;80.32
80568;BME280;69922;45.656;25.586;2023-07-08T03:19:33;95416.81;;;16.81;80.54
80568;BME280;69922;45.656;25.586;2023-07-08T03:20:41;95418.92;;;16.80;80.61
80568;BME280;69922;45.656;25.586;2023-07-08T03:21:47;95415.41;;;16.79;80.70
80568;BME280;69922;45.656;25.586;2023-07-08T03:22:53;95415.60;;;16.77;80.64
80568;BME280;69922;45.656;25.586;2023-07-08T03:23:59;95416.21;;;16.76;80.63
80568;BME280;69922;45.656;25.586;2023-07-08T03:25:08;95418.08;;;16.75;81.00
80568;BME280;69922;45.656;25.586;2023-07-08T03:26:19;95417.58;;;16.74;80.98
80568;BME280;69922;45.656;25.586;2023-07-08T03:27:29;95415.19;;;16.73;80.82
80568;BME280;69922;45.656;25.586;2023-07-08T03:28:35;95415.25;;;16.72;80.99
80568;BME280;69922;45.656;25.586;2023-07-08T03:29:41;95412.71;;;16.71;80.97
80568;BME280;69922;45.656;25.586;2023-07-08T03:30:53;95413.73;;;16.71;80.99
80568;BME280;69922;45.656;25.586;2023-07-08T03:31:59;95412.55;;;16.71;81.01
80568;BME280;69922;45.656;25.586;2023-07-08T03:33:06;95415.13;;;16.71;81.23
80568;BME280;69922;45.656;25.586;2023-07-08T03:34:13;95416.65;;;16.71;80.99
80568;BME280;69922;45.656;25.586;2023-07-08T03:35:20;95414.99;;;16.72;80.97
80568;BME280;69922;45.656;25.586;2023-07-08T03:36:28;95419.36;;;16.73;81.34
80568;BME280;69922;45.656;25.586;2023-07-08T03:37:33;95421.67;;;16.74;81.33
80568;BME280;69922;45.656;25.586;2023-07-08T03:38:39;95425.92;;;16.77;81.13
80568;BME280;69922;45.656;25.586;2023-07-08T03:39:47;95420.56;;;16.77;80.90
80568;BME280;69922;45.656;25.586;2023-07-08T03:40:53;95423.43;;;16.78;81.14
80568;BME280;69922;45.656;25.586;2023-07-08T03:41:59;95422.27;;;16.79;81.07
80568;BME280;69922;45.656;25.586;2023-07-08T03:43:06;95420.43;;;16.81;81.20
80568;BME280;69922;45.656;25.586;2023-07-08T03:44:12;95421.34;;;16.82;81.14
80568;BME280;69922;45.656;25.586;2023-07-08T03:45:18;95420.91;;;16.84;81.09
80568;BME280;69922;45.656;25.586;2023-07-08T03:46:24;95422.18;;;16.85;81.13
80568;BME280;69922;45.656;25.586;2023-07-08T03:47:30;95420.82;;;16.84;81.01
80568;BME280;69922;45.656;25.586;2023-07-08T03:48:36;95425.59;;;16.82;80.80
80568;BME280;69922;45.656;25.586;2023-07-08T03:49:42;95419.14;;;16.80;80.85
80568;BME280;69922;45.656;25.586;2023-07-08T03:50:48;95425.13;;;16.86;81.08
80568;BME280;69922;45.656;25.586;2023-07-08T03:51:55;95425.06;;;16.90;80.96
80568;BME280;69922;45.656;25.586;2023-07-08T03:53:01;95424.48;;;16.92;80.74
80568;BME280;69922;45.656;25.586;2023-07-08T03:54:11;95428.62;;;16.93;80.68
80568;BME280;69922;45.656;25.586;2023-07-08T03:55:19;95429.01;;;16.96;80.81
80568;BME280;69922;45.656;25.586;2023-07-08T03:56:25;95424.39;;;16.98;80.76
80568;BME280;69922;45.656;25.586;2023-07-08T03:57:31;95428.50;;;17.02;80.93
80568;BME280;69922;45.656;25.586;2023-07-08T03:58:37;95432.94;;;17.05;80.72
80568;BME280;69922;45.656;25.586;2023-07-08T03:59:43;95436.36;;;17.07;80.33
80568;BME280;69922;45.656;25.586;2023-07-08T04:00:50;95438.59;;;17.08;80.40
80568;BME280;69922;45.656;25.586;2023-07-08T04:01:56;95434.89;;;17.08;80.19
80568;BME280;69922;45.656;25.586;2023-07-08T04:03:02;95439.07;;;17.08;80.23
80568;BME280;69922;45.656;25.586;2023-07-08T04:04:10;95435.43;;;17.08;80.23
80568;BME280;69922;45.656;25.586;2023-07-08T04:05:19;95439.23;;;17.08;80.34
80568;BME280;69922;45.656;25.586;2023-07-08T04:06:26;95440.02;;;17.08;80.42
80568;BME280;69922;45.656;25.586;2023-07-08T04:07:35;95438.40;;;17.09;80.43
80568;BME280;69922;45.656;25.586;2023-07-08T04:08:41;95439.45;;;17.11;80.34
80568;BME280;69922;45.656;25.586;2023-07-08T04:09:47;95433.39;;;17.11;80.48
80568;BME280;69922;45.656;25.586;2023-07-08T04:10:54;95436.20;;;17.13;80.61
80568;BME280;69922;45.656;25.586;2023-07-08T04:12:00;95435.77;;;17.11;80.37
80568;BME280;69922;45.656;25.586;2023-07-08T04:13:07;95437.91;;;17.12;80.21
80568;BME280;69922;45.656;25.586;2023-07-08T04:14:13;95439.34;;;17.12;80.16
80568;BME280;69922;45.656;25.586;2023-07-08T04:15:19;95439.15;;;17.11;80.18
80568;BME280;69922;45.656;25.586;2023-07-08T04:16:44;95442.35;;;17.10;80.29
80568;BME280;69922;45.656;25.586;2023-07-08T04:17:51;95442.69;;;17.08;80.03
80568;BME280;69922;45.656;25.586;2023-07-08T04:18:59;95442.30;;;17.08;80.20
80568;BME280;69922;45.656;25.586;2023-07-08T04:20:08;95445.17;;;17.10;80.14
80568;BME280;69922;45.656;25.586;2023-07-08T04:21:16;95446.84;;;17.13;80.16
80568;BME280;69922;45.656;25.586;2023-07-08T04:22:25;95449.91;;;17.16;79.95
80568;BME280;69922;45.656;25.586;2023-07-08T04:23:31;95449.17;;;17.18;79.70
80568;BME280;69922;45.656;25.586;2023-07-08T04:24:37;95453.37;;;17.19;79.42
80568;BME280;69922;45.656;25.586;2023-07-08T04:25:43;95451.20;;;17.17;79.45
80568;BME280;69922;45.656;25.586;2023-07-08T04:26:49;95445.72;;;17.16;79.37
80568;BME280;69922;45.656;25.586;2023-07-08T04:27:57;95446.54;;;17.17;79.50
80568;BME280;69922;45.656;25.586;2023-07-08T04:29:03;95446.88;;;17.19;79.49
80568;BME280;69922;45.656;25.586;2023-07-08T04:30:20;95446.80;;;17.21;79.59
80568;BME280;69922;45.656;25.586;2023-07-08T04:31:28;95450.27;;;17.25;79.44
80568;BME280;69922;45.656;25.586;2023-07-08T04:32:34;95447.98;;;17.28;79.55
80568;BME280;69922;45.656;25.586;2023-07-08T04:33:43;95453.23;;;17.34;79.45
80568;BME280;69922;45.656;25.586;2023-07-08T04:34:49;95455.21;;;17.37;79.21
80568;BME280;69922;45.656;25.586;2023-07-08T04:35:56;95457.30;;;17.41;79.16
80568;BME280;69922;45.656;25.586;2023-07-08T04:37:07;95456.75;;;17.44;78.99
80568;BME280;69922;45.656;25.586;2023-07-08T04:38:19;95453.41;;;17.47;78.90
80568;BME280;69922;45.656;25.586;2023-07-08T04:39:27;95456.36;;;17.51;78.90
80568;BME280;69922;45.656;25.586;2023-07-08T04:40:33;95456.40;;;17.53;78.60
80568;BME280;69922;45.656;25.586;2023-07-08T04:41:40;95460.17;;;17.52;78.63
80568;BME280;69922;45.656;25.586;2023-07-08T04:42:48;95459.10;;;17.50;78.41
80568;BME280;69922;45.656;25.586;2023-07-08T04:43:57;95458.45;;;17.50;78.61
80568;BME280;69922;45.656;25.586;2023-07-08T04:45:10;95460.39;;;17.51;78.68
80568;BME280;69922;45.656;25.586;2023-07-08T04:46:22;95462.64;;;17.53;78.47
80568;BME280;69922;45.656;25.586;2023-07-08T04:47:34;95459.90;;;17.54;78.33
80568;BME280;69922;45.656;25.586;2023-07-08T04:48:40;95461.42;;;17.56;78.42
80568;BME280;69922;45.656;25.586;2023-07-08T04:49:46;95461.33;;;17.55;78.18
80568;BME280;69922;45.656;25.586;2023-07-08T04:50:54;95461.71;;;17.54;78.30
80568;BME280;69922;45.656;25.586;2023-07-08T04:52:00;95464.30;;;17.53;78.19
80568;BME280;69922;45.656;25.586;2023-07-08T04:53:07;95461.68;;;17.53;78.21
80568;BME280;69922;45.656;25.586;2023-07-08T04:54:14;95463.59;;;17.54;78.07
80568;BME280;69922;45.656;25.586;2023-07-08T04:55:21;95463.12;;;17.53;78.15
80568;BME280;69922;45.656;25.586;2023-07-08T04:56:38;95461.93;;;17.54;78.21
80568;BME280;69922;45.656;25.586;2023-07-08T04:57:44;95462.66;;;17.54;78.26
80568;BME280;69922;45.656;25.586;2023-07-08T04:58:50;95460.66;;;17.56;78.29
80568;BME280;69922;45.656;25.586;2023-07-08T04:59:56;95463.34;;;17.59;78.27
80568;BME280;69922;45.656;25.586;2023-07-08T05:01:02;95461.31;;;17.61;77.90
80568;BME280;69922;45.656;25.586;2023-07-08T05:02:08;95461.38;;;17.64;77.95
80568;BME280;69922;45.656;25.586;2023-07-08T05:03:15;95462.88;;;17.67;77.77
80568;BME280;69922;45.656;25.586;2023-07-08T05:04:27;95461.38;;;17.70;77.47
80568;BME280;69922;45.656;25.586;2023-07-08T05:05:33;95464.59;;;17.77;77.54
80568;BME280;69922;45.656;25.586;2023-07-08T05:06:40;95462.95;;;17.82;77.24
80568;BME280;69922;45.656;25.586;2023-07-08T05:07:46;95461.96;;;17.87;77.17
80568;BME280;69922;45.656;25.586;2023-07-08T05:08:52;95462.65;;;17.93;76.99
80568;BME280;69922;45.656;25.586;2023-07-08T05:09:58;95462.77;;;17.99;76.89
80568;BME280;69922;45.656;25.586;2023-07-08T05:11:04;95466.67;;;18.05;76.56
80568;BME280;69922;45.656;25.586;2023-07-08T05:12:10;95467.95;;;18.09;75.96
80568;BME280;69922;45.656;25.586;2023-07-08T05:13:16;95467.86;;;18.12;75.80
80568;BME280;69922;45.656;25.586;2023-07-08T05:14:22;95468.55;;;18.15;75.95
80568;BME280;69922;45.656;25.586;2023-07-08T05:15:27;95468.20;;;18.17;75.73
80568;BME280;69922;45.656;25.586;2023-07-08T05:16:35;95466.52;;;18.20;75.40
80568;BME280;69922;45.656;25.586;2023-07-08T05:17:42;95468.77;;;18.22;74.76
80568;BME280;69922;45.656;25.586;2023-07-08T05:18:48;95465.95;;;18.24;74.63
80568;BME280;69922;45.656;25.586;2023-07-08T05:19:54;95465.67;;;18.26;74.69
80568;BME280;69922;45.656;25.586;2023-07-08T05:21:03;95468.74;;;18.29;74.63
80568;BME280;69922;45.656;25.586;2023-07-08T05:22:09;95466.17;;;18.30;74.38
80568;BME280;69922;45.656;25.586;2023-07-08T05:23:15;95466.61;;;18.32;74.11
80568;BME280;69922;45.656;25.586;2023-07-08T05:24:23;95470.38;;;18.35;74.18
80568;BME280;69922;45.656;25.586;2023-07-08T05:25:32;95469.55;;;18.37;73.41
80568;BME280;69922;45.656;25.586;2023-07-08T05:26:38;95469.64;;;18.40;73.34
80568;BME280;69922;45.656;25.586;2023-07-08T05:27:44;95468.41;;;18.47;73.50
80568;BME280;69922;45.656;25.586;2023-07-08T05:28:50;95469.30;;;18.52;72.38
80568;BME280;69922;45.656;25.586;2023-07-08T05:29:56;95469.27;;;18.55;72.55
80568;BME280;69922;45.656;25.586;2023-07-08T05:31:04;95468.40;;;18.58;72.54
80568;BME280;69922;45.656;25.586;2023-07-08T05:32:10;95467.44;;;18.62;72.51
80568;BME280;69922;45.656;25.586;2023-07-08T05:33:16;95472.23;;;18.64;71.91
80568;BME280;69922;45.656;25.586;2023-07-08T05:34:22;95477.30;;;18.65;71.19
80568;BME280;69922;45.656;25.586;2023-07-08T05:35:28;95479.95;;;18.67;70.67
80568;BME280;69922;45.656;25.586;2023-07-08T05:36:35;95472.42;;;18.70;71.42
80568;BME280;69922;45.656;25.586;2023-07-08T05:37:41;95474.17;;;18.75;70.99
80568;BME280;69922;45.656;25.586;2023-07-08T05:38:50;95476.76;;;18.83;70.86
80568;BME280;69922;45.656;25.586;2023-07-08T05:39:57;95475.73;;;18.91;71.10
80568;BME280;69922;45.656;25.586;2023-07-08T05:41:06;95480.46;;;18.99;70.18
80568;BME280;69922;45.656;25.586;2023-07-08T05:42:12;95477.61;;;19.04;69.91
80568;BME280;69922;45.656;25.586;2023-07-08T05:43:19;95474.55;;;19.10;69.79
80568;BME280;69922;45.656;25.586;2023-07-08T05:44:27;95472.98;;;19.16;68.90
80568;BME280;69922;45.656;25.586;2023-07-08T05:45:33;95477.05;;;19.18;68.54
80568;BME280;69922;45.656;25.586;2023-07-08T05:46:43;95471.56;;;19.21;69.07
80568;BME280;69922;45.656;25.586;2023-07-08T05:47:49;95473.27;;;19.23;68.81
80568;BME280;69922;45.656;25.586;2023-07-08T05:48:55;95477.95;;;19.27;69.02
80568;BME280;69922;45.656;25.586;2023-07-08T05:50:09;95475.63;;;19.30;69.25
80568;BME280;69922;45.656;25.586;2023-07-08T05:51:14;95477.29;;;19.36;68.69
80568;BME280;69922;45.656;25.586;2023-07-08T05:52:21;95472.81;;;19.38;67.53
80568;BME280;69922;45.656;25.586;2023-07-08T05:53:27;95471.91;;;19.40;67.19
80568;BME280;69922;45.656;25.586;2023-07-08T05:54:33;95474.36;;;19.40;66.94
80568;BME280;69922;45.656;25.586;2023-07-08T05:55:41;95477.73;;;19.38;66.17